sensor_id;sensor_type;location;lat;lon;timestamp;pressure;altitude;pressure_sealevel;temperature;humidity
71778;BME280;59609;52.430;4.668;2023-03-21T00:00:40;101587.34;;;9.63;100.00
71778;BME280;59609;52.430;4.668;2023-03-21T00:03:06;101587.50;;;9.61;100.00
71778;BME280;59609;52.430;4.668;2023-03-21T00:05:31;101574.59;;;9.62;100.00
71778;BME280;59609;52.430;4.668;2023-03-21T00:07:56;101576.47;;;9.61;100.00
71778;BME280;59609;52.430;4.668;2023-03-21T00:10:22;101576.78;;;9.58;100.00
71778;BME280;59609;52.430;4.668;2023-03-21T00:12:47;101572.44;;;9.56;100.00
71778;BME280;59609;52.430;4.668;2023-03-21T00:15:25;101568.38;;;9.50;100.00
71778;BME280;59609;52.430;4.668;2023-03-21T00:17:56;101560.13;;;9.50;100.00
71778;BME280;59609;52.430;4.668;2023-03-21T00:20:35;101561.56;;;9.54;100.00
71778;BME280;59609;52.430;4.668;2023-03-21T00:23:02;101561.13;;;9.49;100.00
71778;BME280;59609;52.430;4.668;2023-03-21T00:25:28;101563.00;;;9.49;100.00
71778;BME280;59609;52.430;4.668;2023-03-21T00:27:53;101560.44;;;9.57;100.00
71778;BME280;59609;52.430;4.668;2023-03-21T00:30:19;101556.81;;;9.56;100.00
71778;BME280;59609;52.430;4.668;2023-03-21T00:32:47;101549.44;;;9.57;100.00
71778;BME280;59609;52.430;4.668;2023-03-21T00:35:13;101553.06;;;9.57;100.00
71778;BME280;59609;52.430;4.668;2023-03-21T00:37:38;101555.34;;;9.52;100.00
71778;BME280;59609;52.430;4.668;2023-03-21T00:40:04;101557.97;;;9.63;100.00
71778;BME280;59609;52.430;4.668;2023-03-21T00:42:36;101549.44;;;9.57;100.00
71778;BME280;59609;52.430;4.668;2023-03-21T00:45:03;101545.22;;;9.53;100.00
71778;BME280;59609;52.430;4.668;2023-03-21T00:47:28;101552.88;;;9.59;100.00
71778;BME280;59609;52.430;4.668;2023-03-21T00:49:54;101540.88;;;9.60;100.00
71778;BME280;59609;52.430;4.668;2023-03-21T00:52:20;101547.25;;;9.60;100.00
71778;BME280;59609;52.430;4.668;2023-03-21T00:54:45;101545.94;;;9.64;100.00
71778;BME280;59609;52.430;4.668;2023-03-21T00:57:10;101536.84;;;9.64;100.00
71778;BME280;59609;52.430;4.668;2023-03-21T00:59:36;101532.47;;;9.61;100.00
71778;BME280;59609;52.430;4.668;2023-03-21T01:02:01;101528.00;;;9.60;100.00
71778;BME280;59609;52.430;4.668;2023-03-21T01:04:32;101532.47;;;9.61;100.00
71778;BME280;59609;52.430;4.668;2023-03-21T01:06:58;101524.09;;;9.72;100.00
71778;BME280;59609;52.430;4.668;2023-03-21T01:09:24;101520.47;;;9.62;100.00
71778;BME280;59609;52.430;4.668;2023-03-21T01:11:50;101513.78;;;9.65;100.00
71778;BME280;59609;52.430;4.668;2023-03-21T01:14:17;101510.03;;;9.66;100.00
71778;BME280;59609;52.430;4.668;2023-03-21T01:16:43;101506.28;;;9.67;100.00
71778;BME280;59609;52.430;4.668;2023-03-21T01:19:12;101504.25;;;9.69;100.00
71778;BME280;59609;52.430;4.668;2023-03-21T01:21:38;101506.13;;;9.68;100.00
71778;BME280;59609;52.430;4.668;2023-03-21T01:24:04;101503.25;;;9.60;100.00
71778;BME280;59609;52.430;4.668;2023-03-21T01:26:29;101496.41;;;9.64;100.00
71778;BME280;59609;52.430;4.668;2023-03-21T01:28:55;101512.94;;;9.74;100.00
71778;BME280;59609;52.430;4.668;2023-03-21T01:31:20;101500.31;;;9.71;100.00
71778;BME280;59609;52.430;4.668;2023-03-21T01:33:46;101482.53;;;9.56;100.00
71778;BME280;59609;52.430;4.668;2023-03-21T01:36:18;101499.03;;;9.66;100.00
71778;BME280;59609;52.430;4.668;2023-03-21T01:38:44;101489.19;;;9.63;100.00
71778;BME280;59609;52.430;4.668;2023-03-21T01:41:29;101486.88;;;9.59;100.00
71778;BME280;59609;52.430;4.668;2023-03-21T01:43:55;101485.09;;;9.67;100.00
71778;BME280;59609;52.430;4.668;2023-03-21T01:49:10;101496.56;;;9.63;100.00
71778;BME280;59609;52.430;4.668;2023-03-21T01:51:41;101488.63;;;9.60;100.00
71778;BME280;59609;52.430;4.668;2023-03-21T01:54:12;101492.66;;;9.65;100.00
71778;BME280;59609;52.430;4.668;2023-03-21T01:56:39;101494.81;;;9.71;100.00
71778;BME280;59609;52.430;4.668;2023-03-21T01:59:29;101484.09;;;9.68;100.00
71778;BME280;59609;52.430;4.668;2023-03-21T02:01:59;101477.03;;;9.66;100.00
71778;BME280;59609;52.430;4.668;2023-03-21T02:04:32;101484.56;;;9.64;100.00
71778;BME280;59609;52.430;4.668;2023-03-21T02:07:04;101477.16;;;9.64;100.00
71778;BME280;59609;52.430;4.668;2023-03-21T02:09:34;101465.00;;;9.67;100.00
71778;BME280;59609;52.430;4.668;2023-03-21T02:12:02;101466.44;;;9.61;100.00
71778;BME280;59609;52.430;4.668;2023-03-21T02:14:29;101464.84;;;9.68;100.00
71778;BME280;59609;52.430;4.668;2023-03-21T02:17:09;101461.81;;;9.71;100.00
71778;BME280;59609;52.430;4.668;2023-03-21T02:27:58;101443.84;;;9.77;100.00
71778;BME280;59609;52.430;4.668;2023-03-21T02:38:46;101429.53;;;9.73;100.00
71778;BME280;59609;52.430;4.668;2023-03-21T02:44:18;101424.72;;;9.85;100.00
71778;BME280;59609;52.430;4.668;2023-03-21T02:46:52;101424.13;;;9.81;100.00
71778;BME280;59609;52.430;4.668;2023-03-21T02:49:32;101421.81;;;9.87;100.00
71778;BME280;59609;52.430;4.668;2023-03-21T02:51:59;101415.00;;;9.81;100.00
71778;BME280;59609;52.430;4.668;2023-03-21T02:54:27;101408.19;;;9.85;100.00
71778;BME280;59609;52.430;4.668;2023-03-21T02:56:55;101417.03;;;9.79;100.00
71778;BME280;59609;52.430;4.668;2023-03-21T02:59:23;101416.19;;;9.78;100.00
71778;BME280;59609;52.430;4.668;2023-03-21T03:01:51;101423.72;;;9.76;100.00
71778;BME280;59609;52.430;4.668;2023-03-21T03:04:23;101417.78;;;9.71;100.00
71778;BME280;59609;52.430;4.668;2023-03-21T03:09:49;101413.00;;;9.83;100.00
71778;BME280;59609;52.430;4.668;2023-03-21T03:18:19;101405.63;;;9.74;100.00
71778;BME280;59609;52.430;4.668;2023-03-21T03:26:30;101415.00;;;9.91;100.00
71778;BME280;59609;52.430;4.668;2023-03-21T03:29:01;101394.13;;;9.88;100.00
71778;BME280;59609;52.430;4.668;2023-03-21T03:31:32;101394.44;;;9.85;100.00
71778;BME280;59609;52.430;4.668;2023-03-21T03:34:08;101394.41;;;9.95;100.00
71778;BME280;59609;52.430;4.668;2023-03-21T03:36:38;101393.00;;;9.91;100.00
71778;BME280;59609;52.430;4.668;2023-03-21T03:39:08;101390.69;;;9.86;100.00
71778;BME280;59609;52.430;4.668;2023-03-21T03:41:43;101389.50;;;9.89;100.00
71778;BME280;59609;52.430;4.668;2023-03-21T03:44:09;101393.84;;;9.91;100.00
71778;BME280;59609;52.430;4.668;2023-03-21T03:46:46;101386.63;;;9.90;100.00
71778;BME280;59609;52.430;4.668;2023-03-21T03:49:21;101386.75;;;9.89;100.00
71778;BME280;59609;52.430;4.668;2023-03-21T03:51:56;101383.41;;;9.85;100.00
71778;BME280;59609;52.430;4.668;2023-03-21T03:54:44;101386.91;;;9.87;100.00
71778;BME280;59609;52.430;4.668;2023-03-21T03:57:11;101376.91;;;9.86;100.00
71778;BME280;59609;52.430;4.668;2023-03-21T03:59:40;101385.75;;;9.90;100.00
71778;BME280;59609;52.430;4.668;2023-03-21T04:02:06;101378.19;;;9.92;100.00
71778;BME280;59609;52.430;4.668;2023-03-21T04:04:32;101382.41;;;9.86;100.00
71778;BME280;59609;52.430;4.668;2023-03-21T04:06:58;101369.66;;;9.85;100.00
71778;BME280;59609;52.430;4.668;2023-03-21T04:09:25;101376.75;;;9.97;100.00
71778;BME280;59609;52.430;4.668;2023-03-21T04:11:53;101382.53;;;9.94;100.00
71778;BME280;59609;52.430;4.668;2023-03-21T04:14:18;101385.59;;;9.81;100.00
71778;BME280;59609;52.430;4.668;2023-03-21T04:16:43;101384.28;;;9.86;100.00
71778;BME280;59609;52.430;4.668;2023-03-21T04:19:09;101383.00;;;9.90;100.00
71778;BME280;59609;52.430;4.668;2023-03-21T04:21:34;101368.38;;;9.79;100.00
71778;BME280;59609;52.430;4.668;2023-03-21T04:24:00;101376.19;;;9.84;100.00
71778;BME280;59609;52.430;4.668;2023-03-21T04:26:26;101378.78;;;9.86;100.00
71778;BME280;59609;52.430;4.668;2023-03-21T04:28:58;101375.91;;;9.77;100.00
71778;BME280;59609;52.430;4.668;2023-03-21T04:31:27;101372.00;;;9.80;100.00
71778;BME280;59609;52.430;4.668;2023-03-21T04:33:56;101375.91;;;9.77;100.00
71778;BME280;59609;52.430;4.668;2023-03-21T04:36:21;101375.19;;;9.75;100.00
71778;BME280;59609;52.430;4.668;2023-03-21T04:38:52;101374.19;;;9.76;100.00
71778;BME280;59609;52.430;4.668;2023-03-21T04:41:18;101372.16;;;9.78;100.00
71778;BME280;59609;52.430;4.668;2023-03-21T04:43:44;101373.63;;;9.73;100.00
71778;BME280;59609;52.430;4.668;2023-03-21T04:46:10;101369.56;;;9.77;100.00
71778;BME280;59609;52.430;4.668;2023-03-21T04:48:35;101369.13;;;9.72;100.00
71778;BME280;59609;52.430;4.668;2023-03-21T04:51:02;101372.16;;;9.78;100.00
71778;BME280;59609;52.430;4.668;2023-03-21T04:53:27;101366.94;;;9.75;100.00
71778;BME280;59609;52.430;4.668;2023-03-21T04:55:52;101359.13;;;9.80;100.00
71778;BME280;59609;52.430;4.668;2023-03-21T04:58:18;101366.25;;;9.64;100.00
71778;BME280;59609;52.430;4.668;2023-03-21T05:00:44;101365.97;;;9.67;100.00
71778;BME280;59609;52.430;4.668;2023-03-21T05:03:10;101363.47;;;9.83;100.00
71778;BME280;59609;52.430;4.668;2023-03-21T05:05:44;101364.78;;;9.69;100.00
71778;BME280;59609;52.430;4.668;2023-03-21T05:08:10;101360.56;;;9.75;100.00
71778;BME280;59609;52.430;4.668;2023-03-21T05:10:35;101356.09;;;9.74;100.00
71778;BME280;59609;52.430;4.668;2023-03-21T05:13:00;101357.72;;;9.67;100.00
71778;BME280;59609;52.430;4.668;2023-03-21T05:15:29;101357.72;;;9.67;100.00
71778;BME280;59609;52.430;4.668;2023-03-21T05:17:54;101365.50;;;9.71;100.00
71778;BME280;59609;52.430;4.668;2023-03-21T05:20:23;101355.53;;;9.70;100.00
71778;BME280;59609;52.430;4.668;2023-03-21T05:22:48;101353.34;;;9.74;100.00
71778;BME280;59609;52.430;4.668;2023-03-21T05:25:16;101365.78;;;9.78;100.00
71778;BME280;59609;52.430;4.668;2023-03-21T05:27:45;101364.50;;;9.72;100.00
71778;BME280;59609;52.430;4.668;2023-03-21T05:30:18;101359.13;;;9.71;100.00
71778;BME280;59609;52.430;4.668;2023-03-21T05:32:44;101360.59;;;9.65;100.00
71778;BME280;59609;52.430;4.668;2023-03-21T05:35:10;101359.13;;;9.71;100.00
71778;BME280;59609;52.430;4.668;2023-03-21T05:37:36;101352.50;;;9.64;100.00
71778;BME280;59609;52.430;4.668;2023-03-21T05:40:03;101368.41;;;9.70;100.00
71778;BME280;59609;52.430;4.668;2023-03-21T05:42:30;101365.81;;;9.68;100.00
71778;BME280;59609;52.430;4.668;2023-03-21T05:44:55;101355.53;;;9.70;100.00
71778;BME280;59609;52.430;4.668;2023-03-21T05:47:21;101364.22;;;9.66;100.00
71778;BME280;59609;52.430;4.668;2023-03-21T05:49:47;101363.22;;;9.67;100.00
71778;BME280;59609;52.430;4.668;2023-03-21T05:52:12;101361.91;;;9.61;100.00
71778;BME280;59609;52.430;4.668;2023-03-21T05:54:38;101354.22;;;9.65;100.00
71778;BME280;59609;52.430;4.668;2023-03-21T05:57:04;101353.22;;;9.66;100.00
71778;BME280;59609;52.430;4.668;2023-03-21T05:59:29;101351.47;;;9.65;100.00
71778;BME280;59609;52.430;4.668;2023-03-21T06:01:55;101361.59;;;9.74;100.00
71778;BME280;59609;52.430;4.668;2023-03-21T06:04:20;101352.03;;;9.68;100.00
71778;BME280;59609;52.430;4.668;2023-03-21T06:06:48;101357.53;;;9.68;100.00
71778;BME280;59609;52.430;4.668;2023-03-21T06:09:15;101347.28;;;9.70;100.00
71778;BME280;59609;52.430;4.668;2023-03-21T06:11:45;101360.44;;;9.76;100.00
71778;BME280;59609;52.430;4.668;2023-03-21T06:14:11;101356.53;;;9.69;100.00
71778;BME280;59609;52.430;4.668;2023-03-21T06:16:36;101354.34;;;9.73;100.00
71778;BME280;59609;52.430;4.668;2023-03-21T06:19:02;101355.06;;;9.75;100.00
71778;BME280;59609;52.430;4.668;2023-03-21T06:21:27;101352.31;;;9.75;100.00
71778;BME280;59609;52.430;4.668;2023-03-21T06:23:53;101349.28;;;9.68;100.00
71778;BME280;59609;52.430;4.668;2023-03-21T06:26:18;101347.84;;;9.64;100.00
71778;BME280;59609;52.430;4.668;2023-03-21T06:28:47;101361.88;;;9.71;100.00
71778;BME280;59609;52.430;4.668;2023-03-21T06:31:12;101359.59;;;9.66;100.00
71778;BME280;59609;52.430;4.668;2023-03-21T06:33:38;101353.78;;;9.69;100.00
71778;BME280;59609;52.430;4.668;2023-03-21T06:36:03;101351.88;;;9.79;100.00
71778;BME280;59609;52.430;4.668;2023-03-21T06:38:28;101364.34;;;9.74;100.00
71778;BME280;59609;52.430;4.668;2023-03-21T06:40:54;101356.97;;;9.65;100.00
71778;BME280;59609;52.430;4.668;2023-03-21T06:43:19;101358.56;;;9.58;100.00
71778;BME280;59609;52.430;4.668;2023-03-21T06:45:45;101349.19;;;9.51;100.00
71778;BME280;59609;52.430;4.668;2023-03-21T06:48:10;101347.16;;;9.53;100.00
71778;BME280;59609;52.430;4.668;2023-03-21T06:50:36;101345.13;;;9.55;100.00
71778;BME280;59609;52.430;4.668;2023-03-21T06:53:02;101343.81;;;9.59;100.00
71778;BME280;59609;52.430;4.668;2023-03-21T06:55:27;101336.44;;;9.59;100.00
71778;BME280;59609;52.430;4.668;2023-03-21T06:57:53;101340.09;;;9.50;100.00
71778;BME280;59609;52.430;4.668;2023-03-21T07:00:20;101340.94;;;9.51;100.00
71778;BME280;59609;52.430;4.668;2023-03-21T07:02:46;101341.66;;;9.53;100.00
71778;BME280;59609;52.430;4.668;2023-03-21T07:05:12;101335.72;;;9.48;100.00
71778;BME280;59609;52.430;4.668;2023-03-21T07:07:38;101344.13;;;9.56;100.00
71778;BME280;59609;52.430;4.668;2023-03-21T07:10:04;101339.31;;;9.58;100.00
71778;BME280;59609;52.430;4.668;2023-03-21T07:12:30;101339.19;;;9.59;100.00
71778;BME280;59609;52.430;4.668;2023-03-21T07:15:01;101335.25;;;9.62;100.00
71778;BME280;59609;52.430;4.668;2023-03-21T07:17:27;101325.56;;;9.58;100.00
71778;BME280;59609;52.430;4.668;2023-03-21T07:19:53;101337.75;;;9.55;100.00
71778;BME280;59609;52.430;4.668;2023-03-21T07:22:18;101330.78;;;9.51;100.00
71778;BME280;59609;52.430;4.668;2023-03-21T07:24:43;101328.63;;;9.55;100.00
71778;BME280;59609;52.430;4.668;2023-03-21T07:27:15;101327.91;;;9.53;100.00
71778;BME280;59609;52.430;4.668;2023-03-21T07:29:41;101314.00;;;9.54;100.00
71778;BME280;59609;52.430;4.668;2023-03-21T07:32:09;101324.28;;;9.52;100.00
71778;BME280;59609;52.430;4.668;2023-03-21T07:34:34;101325.28;;;9.51;100.00
71778;BME280;59609;52.430;4.668;2023-03-21T07:37:00;101325.75;;;9.56;100.00
71778;BME280;59609;52.430;4.668;2023-03-21T07:39:29;101322.53;;;9.51;100.00
71778;BME280;59609;52.430;4.668;2023-03-21T07:41:57;101321.69;;;9.60;100.00
71778;BME280;59609;52.430;4.668;2023-03-21T07:44:25;101309.53;;;9.53;100.00
71778;BME280;59609;52.430;4.668;2023-03-21T07:46:51;101313.72;;;9.57;100.00
71778;BME280;59609;52.430;4.668;2023-03-21T07:49:16;101307.94;;;9.60;100.00
71778;BME280;59609;52.430;4.668;2023-03-21T07:51:42;101300.97;;;9.56;100.00
71778;BME280;59609;52.430;4.668;2023-03-21T07:54:07;101298.91;;;9.68;100.00
71778;BME280;59609;52.430;4.668;2023-03-21T07:56:33;101305.88;;;9.62;100.00
71778;BME280;59609;52.430;4.668;2023-03-21T07:58:58;101289.09;;;9.56;100.00
71778;BME280;59609;52.430;4.668;2023-03-21T08:01:25;101299.06;;;9.66;100.00
71778;BME280;59609;52.430;4.668;2023-03-21T08:03:51;101295.88;;;9.61;100.00
71778;BME280;59609;52.430;4.668;2023-03-21T08:06:18;101286.91;;;9.59;100.00
71778;BME280;59609;52.430;4.668;2023-03-21T08:08:44;101298.53;;;9.53;100.00
71778;BME280;59609;52.430;4.668;2023-03-21T08:11:10;101288.81;;;9.59;100.00
71778;BME280;59609;52.430;4.668;2023-03-21T08:13:36;101289.53;;;9.51;100.00
71778;BME280;59609;52.430;4.668;2023-03-21T08:16:01;101277.66;;;9.60;100.00
71778;BME280;59609;52.430;4.668;2023-03-21T08:18:26;101285.44;;;9.65;100.00
71778;BME280;59609;52.430;4.668;2023-03-21T08:20:53;101278.91;;;9.75;100.00
71778;BME280;59609;52.430;4.668;2023-03-21T08:23:19;101272.69;;;9.73;100.00
71778;BME280;59609;52.430;4.668;2023-03-21T08:25:45;101273.91;;;9.89;100.00
71778;BME280;59609;52.430;4.668;2023-03-21T08:28:11;101272.41;;;10.04;100.00
71778;BME280;59609;52.430;4.668;2023-03-21T08:30:36;101270.78;;;10.01;100.00
71778;BME280;59609;52.430;4.668;2023-03-21T08:33:03;101276.03;;;9.95;100.00
71778;BME280;59609;52.430;4.668;2023-03-21T08:35:29;101258.84;;;9.93;100.00
71778;BME280;59609;52.430;4.668;2023-03-21T08:37:54;101271.22;;;10.06;100.00
71778;BME280;59609;52.430;4.668;2023-03-21T08:40:19;101269.22;;;9.99;100.00
71778;BME280;59609;52.430;4.668;2023-03-21T08:42:45;101267.47;;;9.98;100.00
71778;BME280;59609;52.430;4.668;2023-03-21T08:45:12;101267.78;;;9.95;100.00
71778;BME280;59609;52.430;4.668;2023-03-21T08:47:38;101262.47;;;10.11;100.00
71778;BME280;59609;52.430;4.668;2023-03-21T08:50:05;101263.06;;;10.14;100.00
71778;BME280;59609;52.430;4.668;2023-03-21T08:52:31;101262.22;;;10.14;100.00
71778;BME280;59609;52.430;4.668;2023-03-21T08:54:56;101265.53;;;10.17;100.00
71778;BME280;59609;52.430;4.668;2023-03-21T08:57:22;101263.69;;;10.36;100.00
71778;BME280;59609;52.430;4.668;2023-03-21T08:59:47;101259.59;;;10.40;100.00
71778;BME280;59609;52.430;4.668;2023-03-21T09:02:14;101261.41;;;10.49;100.00
71778;BME280;59609;52.430;4.668;2023-03-21T09:04:40;101259.06;;;10.54;100.00
71778;BME280;59609;52.430;4.668;2023-03-21T09:07:06;101254.09;;;10.75;100.00
71778;BME280;59609;52.430;4.668;2023-03-21T09:09:33;101249.84;;;10.80;100.00
71778;BME280;59609;52.430;4.668;2023-03-21T09:11:59;101250.47;;;10.74;100.00
71778;BME280;59609;52.430;4.668;2023-03-21T09:14:24;101239.28;;;10.94;100.00
71778;BME280;59609;52.430;4.668;2023-03-21T09:16:50;101244.16;;;11.00;100.00
71778;BME280;59609;52.430;4.668;2023-03-21T09:19:16;101244.47;;;10.97;100.00
71778;BME280;59609;52.430;4.668;2023-03-21T09:21:42;101239.53;;;10.82;100.00
71778;BME280;59609;52.430;4.668;2023-03-21T09:24:08;101243.53;;;10.88;100.00
71778;BME280;59609;52.430;4.668;2023-03-21T09:26:33;101240.38;;;11.01;100.00
71778;BME280;59609;52.430;4.668;2023-03-21T09:28:59;101225.41;;;11.03;100.00
71778;BME280;59609;52.430;4.668;2023-03-21T09:31:25;101230.91;;;11.03;100.00
71778;BME280;59609;52.430;4.668;2023-03-21T09:33:52;101245.25;;;10.89;100.00
71778;BME280;59609;52.430;4.668;2023-03-21T09:36:19;101228.94;;;10.96;100.00
71778;BME280;59609;52.430;4.668;2023-03-21T09:38:47;101217.38;;;11.18;100.00
71778;BME280;59609;52.430;4.668;2023-03-21T09:47:20;101220.34;;;11.24;100.00
71778;BME280;59609;52.430;4.668;2023-03-21T09:50:54;101220.69;;;11.21;100.00
71778;BME280;59609;52.430;4.668;2023-03-21T09:53:22;101223.19;;;11.32;100.00
71778;BME280;59609;52.430;4.668;2023-03-21T09:55:49;101226.31;;;11.12;100.00
71778;BME280;59609;52.430;4.668;2023-03-21T09:58:40;101227.81;;;11.24;100.00
71778;BME280;59609;52.430;4.668;2023-03-21T10:01:15;101233.25;;;11.42;100.00
71778;BME280;59609;52.430;4.668;2023-03-21T10:03:51;101229.25;;;11.36;100.00
71778;BME280;59609;52.430;4.668;2023-03-21T10:06:19;101218.03;;;11.37;100.00
71778;BME280;59609;52.430;4.668;2023-03-21T10:08:46;101227.50;;;11.35;100.00
71778;BME280;59609;52.430;4.668;2023-03-21T10:11:17;101226.31;;;11.63;100.00
71778;BME280;59609;52.430;4.668;2023-03-21T10:13:56;101226.47;;;11.62;100.00
71778;BME280;59609;52.430;4.668;2023-03-21T10:16:30;101216.72;;;11.75;100.00
71778;BME280;59609;52.430;4.668;2023-03-21T10:18:56;101224.53;;;11.80;100.00
71778;BME280;59609;52.430;4.668;2023-03-21T10:21:25;101221.56;;;11.73;100.00
71778;BME280;59609;52.430;4.668;2023-03-21T10:23:52;101225.19;;;11.74;100.00
71778;BME280;59609;52.430;4.668;2023-03-21T10:26:20;101217.13;;;11.80;100.00
71778;BME280;59609;52.430;4.668;2023-03-21T10:28:47;101217.31;;;11.61;100.00
71778;BME280;59609;52.430;4.668;2023-03-21T10:31:21;101221.66;;;11.64;100.00
71778;BME280;59609;52.430;4.668;2023-03-21T10:33:51;101231.84;;;11.63;100.00
71778;BME280;59609;52.430;4.668;2023-03-21T10:36:23;101233.13;;;11.51;100.00
71778;BME280;59609;52.430;4.668;2023-03-21T10:38:55;101206.13;;;11.63;100.00
71778;BME280;59609;52.430;4.668;2023-03-21T10:41:21;101224.00;;;11.84;100.00
71778;BME280;59609;52.430;4.668;2023-03-21T10:44:03;101226.53;;;12.12;100.00
71778;BME280;59609;52.430;4.668;2023-03-21T10:46:29;101224.13;;;12.09;100.00
71778;BME280;59609;52.430;4.668;2023-03-21T10:48:55;101234.28;;;12.08;100.00
71778;BME280;59609;52.430;4.668;2023-03-21T10:51:24;101226.53;;;12.04;100.00
71778;BME280;59609;52.430;4.668;2023-03-21T10:53:54;101223.22;;;12.00;100.00
71778;BME280;59609;52.430;4.668;2023-03-21T10:56:28;101234.09;;;11.94;100.00
71778;BME280;59609;52.430;4.668;2023-03-21T10:58:56;101228.50;;;11.85;100.00
71778;BME280;59609;52.430;4.668;2023-03-21T11:01:44;101235.38;;;11.81;100.00
71778;BME280;59609;52.430;4.668;2023-03-21T11:04:13;101216.13;;;11.90;100.00
71778;BME280;59609;52.430;4.668;2023-03-21T11:06:41;101214.56;;;11.95;100.00
71778;BME280;59609;52.430;4.668;2023-03-21T11:09:20;101214.84;;;11.76;100.00
71778;BME280;59609;52.430;4.668;2023-03-21T11:16:59;101199.34;;;11.83;100.00
71778;BME280;59609;52.430;4.668;2023-03-21T11:19:31;101202.63;;;11.86;100.00
71778;BME280;59609;52.430;4.668;2023-03-21T11:22:02;101210.78;;;11.96;100.00
71778;BME280;59609;52.430;4.668;2023-03-21T11:24:29;101205.94;;;11.98;100.00
71778;BME280;59609;52.430;4.668;2023-03-21T11:26:55;101194.75;;;12.08;100.00
71778;BME280;59609;52.430;4.668;2023-03-21T11:29:32;101184.16;;;12.37;100.00
71778;BME280;59609;52.430;4.668;2023-03-21T11:32:00;101171.16;;;12.29;99.02
71778;BME280;59609;52.430;4.668;2023-03-21T11:34:31;101185.91;;;12.54;98.79
71778;BME280;59609;52.430;4.668;2023-03-21T11:36:59;101184.31;;;12.44;96.51
71778;BME280;59609;52.430;4.668;2023-03-21T11:39:32;101209.19;;;12.44;97.94
71778;BME280;59609;52.430;4.668;2023-03-21T11:41:59;101201.94;;;12.59;96.88
71778;BME280;59609;52.430;4.668;2023-03-21T11:44:33;101195.94;;;12.87;96.27
71778;BME280;59609;52.430;4.668;2023-03-21T11:47:00;101190.19;;;13.21;97.43
71778;BME280;59609;52.430;4.668;2023-03-21T11:49:26;101192.47;;;13.10;97.00
71778;BME280;59609;52.430;4.668;2023-03-21T11:54:57;101205.97;;;13.13;95.84
71778;BME280;59609;52.430;4.668;2023-03-21T11:57:43;101197.09;;;13.01;97.20
71778;BME280;59609;52.430;4.668;2023-03-21T12:00:25;101187.06;;;13.08;95.30
71778;BME280;59609;52.430;4.668;2023-03-21T12:05:31;101191.06;;;12.98;94.62
71778;BME280;59609;52.430;4.668;2023-03-21T12:08:12;101179.47;;;12.78;93.81
71778;BME280;59609;52.430;4.668;2023-03-21T12:13:37;101162.53;;;13.05;91.50
71778;BME280;59609;52.430;4.668;2023-03-21T12:21:45;101160.47;;;13.23;89.00
71778;BME280;59609;52.430;4.668;2023-03-21T12:24:24;101162.56;;;13.13;89.44
71778;BME280;59609;52.430;4.668;2023-03-21T12:27:10;101160.31;;;13.17;89.74
71778;BME280;59609;52.430;4.668;2023-03-21T12:40:22;101157.53;;;13.09;89.54
71778;BME280;59609;52.430;4.668;2023-03-21T12:45:30;101151.16;;;12.68;91.26
71778;BME280;59609;52.430;4.668;2023-03-21T12:48:18;101131.28;;;12.64;91.79
71778;BME280;59609;52.430;4.668;2023-03-21T12:50:46;101133.34;;;12.86;92.86
71778;BME280;59609;52.430;4.668;2023-03-21T12:55:54;101126.91;;;13.02;92.79
71778;BME280;59609;52.430;4.668;2023-03-21T12:58:24;101130.06;;;12.83;92.72
71778;BME280;59609;52.430;4.668;2023-03-21T13:00:55;101127.84;;;12.70;95.83
71778;BME280;59609;52.430;4.668;2023-03-21T13:03:35;101122.13;;;12.56;95.07
71778;BME280;59609;52.430;4.668;2023-03-21T13:06:03;101116.78;;;12.62;96.11
71778;BME280;59609;52.430;4.668;2023-03-21T13:09:03;101116.81;;;12.54;96.10
71778;BME280;59609;52.430;4.668;2023-03-21T13:11:31;101115.75;;;12.55;96.17
71778;BME280;59609;52.430;4.668;2023-03-21T13:19:37;101109.13;;;13.13;94.71
71778;BME280;59609;52.430;4.668;2023-03-21T13:22:10;101106.06;;;12.67;95.46
71778;BME280;59609;52.430;4.668;2023-03-21T13:30:36;101095.66;;;12.94;94.75
71778;BME280;59609;52.430;4.668;2023-03-21T13:32:38;101097.22;;;12.88;94.82
71778;BME280;59609;52.430;4.668;2023-03-21T13:35:15;101096.84;;;12.91;95.04
71778;BME280;59609;52.430;4.668;2023-03-21T13:37:51;101107.75;;;12.84;94.46
71778;BME280;59609;52.430;4.668;2023-03-21T13:40:24;101093.47;;;12.49;95.30
71778;BME280;59609;52.430;4.668;2023-03-21T13:42:57;101101.75;;;12.57;95.18
71778;BME280;59609;52.430;4.668;2023-03-21T13:45:44;101091.22;;;12.28;96.50
71778;BME280;59609;52.430;4.668;2023-03-21T13:48:31;101100.19;;;12.38;96.28
71778;BME280;59609;52.430;4.668;2023-03-21T13:51:04;101093.81;;;12.46;96.42
71778;BME280;59609;52.430;4.668;2023-03-21T13:53:41;101106.41;;;12.16;96.90
71778;BME280;59609;52.430;4.668;2023-03-21T13:56:23;101090.69;;;12.32;97.68
71778;BME280;59609;52.430;4.668;2023-03-21T13:58:52;101083.78;;;12.45;97.29
71778;BME280;59609;52.430;4.668;2023-03-21T14:01:25;101077.75;;;12.33;96.63
71778;BME280;59609;52.430;4.668;2023-03-21T14:04:17;101075.16;;;12.23;97.96
71778;BME280;59609;52.430;4.668;2023-03-21T14:09:14;101069.13;;;12.36;98.74
71778;BME280;59609;52.430;4.668;2023-03-21T14:11:44;101066.19;;;12.54;97.82
71778;BME280;59609;52.430;4.668;2023-03-21T14:14:13;101061.34;;;12.39;98.21
71778;BME280;59609;52.430;4.668;2023-03-21T14:16:39;101062.72;;;12.52;98.07
71778;BME280;59609;52.430;4.668;2023-03-21T14:19:05;101059.41;;;12.72;97.76
71778;BME280;59609;52.430;4.668;2023-03-21T14:21:33;101066.66;;;12.73;97.65
71778;BME280;59609;52.430;4.668;2023-03-21T14:24:00;101068.06;;;12.61;97.60
71778;BME280;59609;52.430;4.668;2023-03-21T14:26:35;101064.25;;;12.62;97.36
71778;BME280;59609;52.430;4.668;2023-03-21T14:29:04;101061.50;;;12.70;97.78